Time;durP1;ratioP1;P1;durP2;ratioP2;P2;SDS_P1;SDS_P2;PMS_P1;PMS_P2;Temp;Humidity;BMP_temperature;BMP_pressure;BME280_temperature;BME280_humidity;BME280_pressure;Samples;Min_cycle;Max_cycle;Signal;HPM_P1;HPM_P2
2023/05/20 00:00:04;;;;;;;43.22;25.38;;;10.10;99.90;;;;;;5075805;28;20082;-80
2023/05/20 00:02:30;;;;;;;43.60;22.83;;;10.10;99.90;;;;;;5075705;28;20058;-79
2023/05/20 00:04:55;;;;;;;45.83;23.60;;;10.10;99.90;;;;;;5075806;28;20059;-77
2023/05/20 00:07:21;;;;;;;47.42;25.48;;;10.00;99.90;;;;;;5075636;28;20025;-80
2023/05/20 00:09:47;;;;;;;46.08;25.13;;;10.00;99.90;;;;;;5057705;28;20021;-77
2023/05/20 00:12:12;;;;;;;44.97;23.92;;;10.00;99.90;;;;;;5057427;28;20020;-80
2023/05/20 00:14:38;;;;;;;46.63;23.42;;;9.90;99.90;;;;;;5075516;28;20123;-79
2023/05/20 00:17:03;;;;;;;43.75;23.08;;;9.90;99.90;;;;;;5057415;28;20012;-77
2023/05/20 00:19:29;;;;;;;42.47;22.27;;;10.00;99.90;;;;;;5075191;28;20481;-79
2023/05/20 00:21:56;;;;;;;36.17;21.08;;;10.00;99.90;;;;;;5057243;28;20453;-77
2023/05/20 00:24:23;;;;;;;39.00;22.70;;;9.90;99.90;;;;;;5057238;28;20070;-77
2023/05/20 00:26:48;;;;;;;37.63;21.90;;;9.90;99.90;;;;;;5075258;28;20021;-77
2023/05/20 00:29:14;;;;;;;39.20;21.77;;;9.90;99.90;;;;;;5075534;28;20020;-79
2023/05/20 00:31:40;;;;;;;38.83;20.30;;;9.90;99.90;;;;;;5057280;28;20103;-77
2023/05/20 00:34:07;;;;;;;36.55;20.75;;;10.00;99.90;;;;;;5052626;28;20095;-77
2023/05/20 00:36:32;;;;;;;37.47;21.35;;;10.00;99.90;;;;;;5035208;28;20032;-77
2023/05/20 00:38:58;;;;;;;33.42;18.90;;;10.00;99.90;;;;;;5017361;28;20398;-77
2023/05/20 00:41:23;;;;;;;34.10;20.02;;;10.00;99.90;;;;;;5035109;28;20363;-77
2023/05/20 00:43:53;;;;;;;29.52;17.08;;;10.00;99.90;;;;;;5017257;28;20017;-78
2023/05/20 00:46:19;;;;;;;32.47;18.42;;;10.00;99.90;;;;;;5035076;28;20100;-80
2023/05/20 00:48:45;;;;;;;30.98;17.65;;;10.00;99.90;;;;;;5016255;28;20048;-77
2023/05/20 00:51:13;;;;;;;27.98;16.85;;;10.00;99.90;;;;;;5017075;28;20017;-77
2023/05/20 00:53:39;;;;;;;31.73;17.23;;;10.00;99.90;;;;;;5034836;28;20033;-78
2023/05/20 00:56:05;;;;;;;27.33;15.75;;;10.10;99.90;;;;;;5017056;28;20466;-80
2023/05/20 00:58:31;;;;;;;28.85;16.30;;;10.10;99.90;;;;;;5034469;28;20084;-80
2023/05/20 01:00:57;;;;;;;31.10;18.42;;;10.00;99.90;;;;;;5034610;28;20029;-80
2023/05/20 01:03:23;;;;;;;32.83;16.73;;;10.10;99.90;;;;;;5016731;28;20028;-79
2023/05/20 01:05:48;;;;;;;30.00;16.55;;;10.10;99.90;;;;;;5034530;28;20041;-80
2023/05/20 01:08:14;;;;;;;30.45;18.02;;;10.10;99.90;;;;;;5016797;28;20136;-78
2023/05/20 01:10:45;;;;;;;34.15;17.05;;;10.00;99.90;;;;;;5016546;28;20032;-80
2023/05/20 01:13:16;;;;;;;28.63;15.93;;;10.10;99.90;;;;;;5016729;28;20030;-80
2023/05/20 01:15:45;;;;;;;28.20;17.50;;;10.00;99.90;;;;;;5034301;28;20022;-78
2023/05/20 01:18:17;;;;;;;30.02;16.27;;;10.10;99.90;;;;;;5016531;28;20056;-78
2023/05/20 01:20:46;;;;;;;27.05;16.40;;;10.10;99.90;;;;;;5016975;28;20076;-81
2023/05/20 01:23:11;;;;;;;31.50;16.00;;;10.10;99.90;;;;;;5016577;28;20029;-80
2023/05/20 01:25:37;;;;;;;29.83;15.60;;;10.10;99.90;;;;;;5016584;28;20056;-78
2023/05/20 01:28:03;;;;;;;25.60;15.23;;;10.10;99.90;;;;;;5016640;28;20025;-80
2023/05/20 01:30:34;;;;;;;30.90;16.45;;;10.10;99.90;;;;;;5034211;28;20059;-78
2023/05/20 01:33:11;;;;;;;29.95;15.98;;;10.10;99.90;;;;;;5034180;28;20013;-78
2023/05/20 01:35:39;;;;;;;30.85;16.77;;;10.10;99.90;;;;;;5034137;28;20029;-80
2023/05/20 01:38:06;;;;;;;26.77;15.48;;;10.10;99.90;;;;;;5033960;28;20038;-78
2023/05/20 01:40:33;;;;;;;31.90;16.63;;;10.10;99.90;;;;;;5034023;28;20021;-78
2023/05/20 01:43:00;;;;;;;31.23;17.25;;;10.10;99.90;;;;;;5033825;28;20029;-81
2023/05/20 01:45:25;;;;;;;28.15;16.15;;;10.20;99.90;;;;;;5033734;28;20117;-79
2023/05/20 01:47:51;;;;;;;40.60;19.58;;;10.20;99.90;;;;;;5033731;28;20487;-81
2023/05/20 01:50:16;;;;;;;33.88;18.20;;;10.20;99.90;;;;;;5025711;28;20089;-81
2023/05/20 01:52:42;;;;;;;30.27;17.55;;;10.20;99.90;;;;;;5053621;28;20051;-78
2023/05/20 01:55:08;;;;;;;30.77;17.60;;;10.20;99.90;;;;;;5053553;28;20107;-78
2023/05/20 01:57:34;;;;;;;32.55;17.52;;;10.20;99.90;;;;;;5053499;28;20028;-79
2023/05/20 02:00:00;;;;;;;27.23;16.38;;;10.20;99.90;;;;;;5035280;28;20394;-80
2023/05/20 02:02:25;;;;;;;33.90;17.92;;;10.20;99.90;;;;;;5035678;28;20027;-78
2023/05/20 02:04:53;;;;;;;27.20;15.35;;;10.20;99.90;;;;;;5053848;28;20021;-78
2023/05/20 02:07:18;;;;;;;27.05;15.32;;;10.20;99.90;;;;;;5035661;28;20071;-81
2023/05/20 02:09:44;;;;;;;25.55;14.93;;;10.20;99.90;;;;;;5035745;28;20025;-79
2023/05/20 02:12:15;;;;;;;27.33;14.43;;;10.20;99.90;;;;;;5035692;28;20537;-79
2023/05/20 02:14:41;;;;;;;22.40;13.68;;;10.20;99.90;;;;;;5053563;28;20389;-78
2023/05/20 02:17:07;;;;;;;23.60;14.63;;;10.20;99.90;;;;;;5053294;28;20029;-78
2023/05/20 02:19:32;;;;;;;23.65;14.57;;;10.30;99.90;;;;;;5016305;28;20038;-78
2023/05/20 02:21:58;;;;;;;27.75;16.95;;;10.30;99.90;;;;;;5033191;28;20033;-78
2023/05/20 02:24:24;;;;;;;26.67;16.05;;;10.30;99.90;;;;;;5033272;28;20021;-79
2023/05/20 02:26:50;;;;;;;26.58;16.48;;;10.30;99.90;;;;;;5015463;28;20049;-80
2023/05/20 02:29:16;;;;;;;28.50;17.58;;;10.30;99.90;;;;;;5015406;28;20021;-79
2023/05/20 02:31:41;;;;;;;28.98;15.90;;;10.30;99.90;;;;;;5015300;28;20010;-77
2023/05/20 02:34:07;;;;;;;29.15;16.75;;;10.40;99.90;;;;;;5033218;28;20017;-77
2023/05/20 02:36:32;;;;;;;31.55;17.25;;;10.30;99.90;;;;;;5033066;28;20018;-78
2023/05/20 02:39:00;;;;;;;30.42;18.10;;;10.30;99.90;;;;;;5015300;28;20044;-78
2023/05/20 02:41:25;;;;;;;37.65;20.10;;;10.30;99.90;;;;;;5015349;28;20026;-79
2023/05/20 02:43:51;;;;;;;29.08;17.42;;;10.30;99.90;;;;;;5033151;28;20022;-79
2023/05/20 02:46:18;;;;;;;34.38;18.63;;;10.40;99.90;;;;;;5015241;28;20124;-78
2023/05/20 02:48:44;;;;;;;28.23;16.85;;;10.40;99.90;;;;;;5015370;28;20438;-76
2023/05/20 02:51:10;;;;;;;32.75;18.95;;;10.30;99.90;;;;;;5015131;28;20022;-76
2023/05/20 02:53:36;;;;;;;36.97;19.58;;;10.30;99.90;;;;;;5015504;28;20033;-79
2023/05/20 02:56:03;;;;;;;31.20;17.77;;;10.30;99.90;;;;;;5033311;28;20460;-78
2023/05/20 02:58:29;;;;;;;31.00;17.33;;;10.40;99.90;;;;;;5033164;28;20038;-79
2023/05/20 03:00:56;;;;;;;32.38;19.42;;;10.40;99.90;;;;;;5015312;28;20028;-77
2023/05/20 03:03:22;;;;;;;31.92;18.02;;;10.40;99.90;;;;;;5033160;28;20412;-77
2023/05/20 03:05:48;;;;;;;34.63;18.23;;;10.40;99.90;;;;;;5015252;28;20075;-79
2023/05/20 03:08:14;;;;;;;31.73;19.40;;;10.40;99.90;;;;;;5015198;28;20097;-76
2023/05/20 03:10:40;;;;;;;33.03;19.02;;;10.40;99.90;;;;;;5015426;28;20021;-79
2023/05/20 03:13:08;;;;;;;37.20;20.15;;;10.40;99.90;;;;;;5036406;28;20068;-79
2023/05/20 03:15:34;;;;;;;32.30;19.35;;;10.40;99.90;;;;;;5018881;28;20386;-76
2023/05/20 03:18:01;;;;;;;35.55;18.45;;;10.40;99.90;;;;;;5040070;28;20048;-79
2023/05/20 03:20:28;;;;;;;33.25;18.40;;;10.40;99.90;;;;;;5055106;28;20040;-78
2023/05/20 03:22:53;;;;;;;33.85;19.83;;;10.40;99.90;;;;;;5055214;28;20029;-78
2023/05/20 03:25:21;;;;;;;30.95;18.45;;;10.40;99.90;;;;;;5056311;28;20475;-79
2023/05/20 03:27:46;;;;;;;29.60;19.02;;;10.40;99.90;;;;;;5056215;28;20025;-79
2023/05/20 03:30:12;;;;;;;30.73;18.25;;;10.40;99.90;;;;;;5056306;28;20035;-76
2023/05/20 03:32:38;;;;;;;29.42;18.17;;;10.40;99.90;;;;;;5054951;28;20025;-78
2023/05/20 03:35:05;;;;;;;29.90;18.55;;;10.40;99.90;;;;;;5054927;28;20017;-76
2023/05/20 03:37:30;;;;;;;36.78;20.73;;;10.40;99.90;;;;;;5054862;28;20021;-79
2023/05/20 03:39:56;;;;;;;36.72;19.23;;;10.40;99.90;;;;;;5055988;28;20037;-78
2023/05/20 03:42:21;;;;;;;31.92;18.83;;;10.40;99.90;;;;;;5056090;28;20382;-76
2023/05/20 03:44:47;;;;;;;37.17;19.20;;;10.40;99.90;;;;;;5054402;28;20116;-76
2023/05/20 03:47:12;;;;;;;31.83;19.05;;;10.40;99.90;;;;;;5055915;28;20420;-76
2023/05/20 03:49:40;;;;;;;28.60;17.92;;;10.50;99.90;;;;;;5056275;28;20040;-78
2023/05/20 03:52:06;;;;;;;32.88;18.50;;;10.50;99.90;;;;;;5054854;28;20025;-77
2023/05/20 03:54:34;;;;;;;29.45;17.52;;;10.50;99.90;;;;;;5055892;28;20039;-78
2023/05/20 03:56:59;;;;;;;29.08;17.85;;;10.50;99.90;;;;;;5054428;28;20505;-79
2023/05/20 03:59:26;;;;;;;30.38;17.67;;;10.50;99.90;;;;;;5054377;28;20029;-77
2023/05/20 04:01:52;;;;;;;28.88;17.05;;;10.50;99.90;;;;;;5054347;28;20043;-81
2023/05/20 04:04:17;;;;;;;29.17;17.17;;;10.50;99.90;;;;;;5055540;28;20474;-81
2023/05/20 04:06:43;;;;;;;29.23;17.33;;;10.60;99.90;;;;;;5055578;28;20025;-78
2023/05/20 04:09:10;;;;;;;28.13;16.75;;;10.60;99.90;;;;;;5055685;28;20028;-79
2023/05/20 04:11:35;;;;;;;27.95;17.17;;;10.70;99.90;;;;;;5055559;28;20024;-78
2023/05/20 04:14:01;;;;;;;26.40;16.10;;;10.70;99.90;;;;;;5054344;28;20175;-80
2023/05/20 04:16:28;;;;;;;25.17;15.57;;;10.70;99.90;;;;;;5055450;28;20060;-76
2023/05/20 04:18:54;;;;;;;23.33;14.70;;;10.70;99.90;;;;;;5055258;28;20045;-79
2023/05/20 04:21:20;;;;;;;23.20;15.60;;;10.80;99.90;;;;;;5054359;28;20024;-79
2023/05/20 04:23:45;;;;;;;24.83;15.57;;;10.80;99.90;;;;;;5053777;28;20021;-79
2023/05/20 04:26:11;;;;;;;23.08;15.48;;;10.80;99.90;;;;;;5053852;28;20025;-76
2023/05/20 04:28:37;;;;;;;25.77;14.38;;;10.80;99.90;;;;;;5053960;28;20470;-79
2023/05/20 04:31:03;;;;;;;22.02;14.30;;;10.90;99.90;;;;;;5055299;28;20474;-79
2023/05/20 04:33:30;;;;;;;26.17;15.77;;;10.90;99.90;;;;;;5053874;28;20029;-79
2023/05/20 04:35:57;;;;;;;24.05;14.93;;;10.90;99.90;;;;;;5053861;28;20490;-79
2023/05/20 04:38:28;;;;;;;21.27;14.57;;;10.90;99.90;;;;;;5053606;28;20040;-80
2023/05/20 04:40:57;;;;;;;22.90;15.27;;;11.00;99.90;;;;;;5053913;28;20029;-79
2023/05/20 04:43:24;;;;;;;28.90;16.23;;;11.10;99.90;;;;;;5054994;28;20100;-78
2023/05/20 04:45:51;;;;;;;25.05;15.60;;;11.10;99.90;;;;;;5054833;28;20372;-79
2023/05/20 04:48:18;;;;;;;29.10;16.75;;;11.10;99.90;;;;;;5053574;28;20375;-79
2023/05/20 04:50:44;;;;;;;30.30;17.88;;;11.10;99.90;;;;;;5054749;28;20025;-79
2023/05/20 04:53:10;;;;;;;26.58;17.27;;;11.10;99.90;;;;;;5054837;28;20021;-79
2023/05/20 04:55:36;;;;;;;32.42;17.45;;;11.10;99.90;;;;;;5053471;28;20421;-76
2023/05/20 04:58:02;;;;;;;29.45;19.13;;;11.20;99.90;;;;;;5053261;28;20028;-76
2023/05/20 05:00:28;;;;;;;31.02;19.23;;;11.20;99.90;;;;;;5041932;28;20033;-79
2023/05/20 05:02:54;;;;;;;26.33;16.75;;;11.20;99.90;;;;;;5033271;28;20105;-79
2023/05/20 05:05:20;;;;;;;28.15;17.27;;;11.30;99.90;;;;;;5033296;28;20029;-77
2023/05/20 05:07:45;;;;;;;29.35;17.95;;;11.30;99.90;;;;;;5045214;28;20031;-78
2023/05/20 05:10:12;;;;;;;27.90;18.13;;;11.30;99.90;;;;;;5052590;28;20041;-76
2023/05/20 05:12:37;;;;;;;28.95;17.95;;;11.40;99.90;;;;;;5052378;28;20116;-77
2023/05/20 05:15:03;;;;;;;28.10;17.80;;;11.40;99.90;;;;;;5052801;28;20112;-77
2023/05/20 05:17:29;;;;;;;29.48;17.75;;;11.40;99.90;;;;;;5048697;28;20090;-77
2023/05/20 05:19:54;;;;;;;32.53;20.08;;;11.50;99.90;;;;;;5050839;28;20064;-77
2023/05/20 05:22:20;;;;;;;27.08;17.13;;;11.50;99.90;;;;;;5044504;28;20086;-76
2023/05/20 05:24:45;;;;;;;29.00;19.20;;;11.60;99.90;;;;;;5050150;28;20038;-79
2023/05/20 05:27:11;;;;;;;33.17;20.45;;;11.60;99.90;;;;;;5042472;28;20020;-80
2023/05/20 05:29:37;;;;;;;33.58;19.95;;;11.70;99.90;;;;;;5052184;28;20021;-80
2023/05/20 05:32:02;;;;;;;35.53;20.90;;;11.70;99.90;;;;;;5049939;28;20021;-80
2023/05/20 05:34:28;;;;;;;33.60;20.35;;;11.70;99.90;;;;;;5049265;28;20049;-80
2023/05/20 05:36:54;;;;;;;30.20;19.48;;;11.80;99.90;;;;;;5049256;28;20021;-79
2023/05/20 05:39:19;;;;;;;30.90;18.58;;;11.80;99.90;;;;;;5049669;28;20036;-79
2023/05/20 05:41:45;;;;;;;34.10;19.92;;;11.90;99.90;;;;;;5052860;28;20025;-77
2023/05/20 05:44:10;;;;;;;35.05;20.67;;;11.90;99.90;;;;;;5052017;28;20466;-77
2023/05/20 05:46:36;;;;;;;31.88;18.80;;;12.00;99.90;;;;;;5040280;28;20516;-76
2023/05/20 05:49:01;;;;;;;39.83;20.70;;;12.00;99.90;;;;;;5037836;28;20025;-79
2023/05/20 05:51:27;;;;;;;36.00;20.77;;;12.00;99.90;;;;;;5043506;28;20017;-79
2023/05/20 05:53:53;;;;;;;37.80;22.52;;;12.10;99.90;;;;;;5051426;28;20075;-79
2023/05/20 05:56:19;;;;;;;43.90;20.80;;;12.10;99.90;;;;;;5053499;28;20017;-79
2023/05/20 05:58:46;;;;;;;35.35;19.85;;;12.20;99.90;;;;;;5053479;28;20039;-76
2023/05/20 06:01:12;;;;;;;30.58;19.33;;;12.20;99.90;;;;;;5052079;28;20072;-76
2023/05/20 06:03:37;;;;;;;40.00;22.60;;;12.20;99.90;;;;;;5048622;28;20045;-79
2023/05/20 06:06:03;;;;;;;37.22;20.17;;;12.20;99.90;;;;;;5041512;28;20032;-76
2023/05/20 06:08:29;;;;;;;36.92;20.83;;;12.20;99.90;;;;;;5051741;28;20025;-76
2023/05/20 06:10:55;;;;;;;39.80;21.25;;;12.30;99.90;;;;;;5051283;28;20033;-78
2023/05/20 06:13:20;;;;;;;33.35;20.67;;;12.40;99.90;;;;;;5051010;28;20021;-76
2023/05/20 06:15:48;;;;;;;38.35;20.67;;;12.40;99.90;;;;;;5052458;28;20021;-79
2023/05/20 06:18:14;;;;;;;38.53;22.67;;;12.50;99.90;;;;;;5051931;28;20036;-79
2023/05/20 06:20:40;;;;;;;39.33;22.45;;;12.50;99.90;;;;;;5050990;28;20463;-76
2023/05/20 06:23:05;;;;;;;38.97;21.77;;;12.50;99.90;;;;;;5052202;28;20112;-79
2023/05/20 06:25:31;;;;;;;43.45;23.95;;;12.60;99.90;;;;;;5040232;28;20028;-76
2023/05/20 06:27:56;;;;;;;39.70;22.02;;;12.70;99.90;;;;;;5051510;28;20036;-76
2023/05/20 06:30:22;;;;;;;40.28;22.55;;;12.70;99.90;;;;;;5044305;28;20039;-80
2023/05/20 06:32:47;;;;;;;35.38;21.52;;;12.80;99.90;;;;;;5050367;28;20020;-79
2023/05/20 06:35:13;;;;;;;42.55;22.67;;;12.90;99.90;;;;;;5050651;28;20470;-76
2023/05/20 06:37:39;;;;;;;38.60;21.67;;;12.90;99.90;;;;;;5049622;28;20020;-80
2023/05/20 06:40:05;;;;;;;63.08;25.90;;;13.10;99.90;;;;;;5051259;28;20056;-79
2023/05/20 06:42:31;;;;;;;58.47;31.88;;;13.20;99.90;;;;;;5045409;28;20364;-80
2023/05/20 06:44:57;;;;;;;34.38;21.15;;;13.30;99.90;;;;;;5039706;28;20036;-76
2023/05/20 06:47:22;;;;;;;36.90;21.67;;;13.40;99.90;;;;;;5052959;28;20032;-79
2023/05/20 06:49:48;;;;;;;38.53;22.00;;;13.40;99.90;;;;;;5054709;28;20022;-77
2023/05/20 06:52:14;;;;;;;35.03;22.30;;;13.60;99.90;;;;;;5054887;28;20100;-78
2023/05/20 06:54:40;;;;;;;36.33;21.60;;;13.70;99.90;;;;;;5050904;28;20025;-78
2023/05/20 06:57:09;;;;;;;36.75;21.30;;;13.80;99.90;;;;;;5054678;28;20040;-77
2023/05/20 06:59:35;;;;;;;37.08;20.52;;;13.80;99.90;;;;;;5050536;28;20507;-76
2023/05/20 07:02:02;;;;;;;34.67;22.98;;;13.80;99.90;;;;;;5056849;28;20026;-76
2023/05/20 07:04:28;;;;;;;32.72;19.98;;;13.90;99.90;;;;;;5051638;28;20386;-80
2023/05/20 07:06:53;;;;;;;34.42;21.15;;;13.90;99.90;;;;;;5055403;28;20013;-77
2023/05/20 07:09:19;;;;;;;37.97;22.63;;;13.90;99.90;;;;;;5050264;28;20021;-80
2023/05/20 07:11:45;;;;;;;35.13;20.38;;;13.90;99.90;;;;;;5055268;28;20021;-77
2023/05/20 07:14:10;;;;;;;32.20;19.23;;;14.00;99.90;;;;;;5048483;28;20137;-77
2023/05/20 07:16:36;;;;;;;34.63;21.05;;;14.00;99.90;;;;;;5054613;28;20025;-80
2023/05/20 07:19:02;;;;;;;28.48;19.98;;;14.10;99.90;;;;;;5054401;28;20115;-79
2023/05/20 07:21:28;;;;;;;33.33;20.80;;;14.20;99.90;;;;;;5055927;28;20043;-79
2023/05/20 07:23:53;;;;;;;35.72;21.35;;;14.10;99.90;;;;;;5056214;28;20482;-77
2023/05/20 07:26:19;;;;;;;34.53;21.52;;;14.20;99.90;;;;;;5035574;28;20386;-79
2023/05/20 07:28:46;;;;;;;32.75;20.35;;;14.20;99.90;;;;;;5035802;28;20099;-79
2023/05/20 07:31:12;;;;;;;36.75;20.63;;;14.30;99.90;;;;;;5058473;28;20084;-80
2023/05/20 07:33:37;;;;;;;33.38;21.23;;;14.30;99.90;;;;;;5059732;28;20041;-80
2023/05/20 07:36:03;;;;;;;31.80;20.58;;;14.20;99.90;;;;;;5054302;28;20697;-77
2023/05/20 07:38:29;;;;;;;34.78;19.90;;;14.30;99.90;;;;;;5035374;28;20056;-77
2023/05/20 07:40:55;;;;;;;33.63;19.55;;;14.30;99.90;;;;;;5035734;28;20473;-77
2023/05/20 07:43:20;;;;;;;31.98;19.92;;;14.20;99.90;;;;;;5037550;28;20017;-77
2023/05/20 07:45:46;;;;;;;40.53;22.77;;;14.20;99.90;;;;;;5056576;28;20116;-76
2023/05/20 07:48:12;;;;;;;37.40;20.70;;;14.30;99.90;;;;;;5038760;28;20081;-77
2023/05/20 07:50:38;;;;;;;31.10;18.90;;;14.40;99.90;;;;;;5037835;28;20029;-80
2023/05/20 07:53:04;;;;;;;30.42;19.92;;;14.30;99.90;;;;;;5039857;28;20492;-78
2023/05/20 07:55:33;;;;;;;34.80;19.60;;;14.40;99.90;;;;;;5040483;28;20356;-78
2023/05/20 07:57:59;;;;;;;35.85;19.20;;;14.40;99.90;;;;;;5035959;28;20048;-78
2023/05/20 08:00:24;;;;;;;29.75;19.10;;;14.50;99.90;;;;;;5054988;28;20053;-77
2023/05/20 08:02:50;;;;;;;31.88;19.13;;;14.50;99.90;;;;;;5036110;28;20024;-80
2023/05/20 08:05:16;;;;;;;32.10;20.10;;;14.40;99.90;;;;;;5055651;28;20017;-79
2023/05/20 08:07:41;;;;;;;31.20;19.70;;;14.60;99.90;;;;;;5037421;28;20041;-80
2023/05/20 08:10:08;;;;;;;37.45;20.98;;;14.50;99.90;;;;;;5036495;28;20056;-79
2023/05/20 08:12:33;;;;;;;34.80;21.00;;;14.40;99.90;;;;;;5036760;28;20021;-79
2023/05/20 08:14:59;;;;;;;31.98;20.75;;;14.40;99.90;;;;;;5054033;28;20032;-79
2023/05/20 08:17:24;;;;;;;29.00;18.88;;;14.30;99.90;;;;;;5070849;28;20043;-81
2023/05/20 08:19:50;;;;;;;32.95;19.83;;;14.20;99.90;;;;;;5073668;28;20170;-80
2023/05/20 08:22:16;;;;;;;29.75;19.25;;;14.30;99.90;;;;;;5073510;28;20111;-79
2023/05/20 08:24:41;;;;;;;28.25;18.48;;;14.40;99.90;;;;;;5054903;28;20112;-80
2023/05/20 08:27:07;;;;;;;36.38;18.10;;;14.40;99.90;;;;;;5072783;28;20428;-79
2023/05/20 08:29:33;;;;;;;32.40;18.15;;;14.40;99.90;;;;;;5055396;28;20445;-80
2023/05/20 08:31:58;;;;;;;27.63;18.35;;;14.50;99.90;;;;;;5055980;28;20020;-79
2023/05/20 08:34:24;;;;;;;25.55;17.35;;;14.50;99.90;;;;;;5073862;28;20063;-80
2023/05/20 08:36:50;;;;;;;26.88;17.05;;;14.60;99.90;;;;;;5055848;28;20083;-79
2023/05/20 08:39:15;;;;;;;28.73;16.50;;;14.70;99.90;;;;;;5056056;28;20036;-79
2023/05/20 08:41:41;;;;;;;25.70;16.88;;;14.60;99.90;;;;;;5055147;28;20025;-79
2023/05/20 08:44:09;;;;;;;27.73;16.63;;;14.70;99.90;;;;;;5036174;28;20510;-80
2023/05/20 08:46:39;;;;;;;29.70;18.25;;;14.70;99.90;;;;;;5053468;28;20168;-78
2023/05/20 08:49:05;;;;;;;27.13;17.05;;;14.70;99.90;;;;;;5035534;28;20096;-78
2023/05/20 08:51:32;;;;;;;24.48;15.95;;;14.80;99.90;;;;;;5035890;28;20394;-78
2023/05/20 08:54:02;;;;;;;23.52;17.17;;;14.80;99.90;;;;;;5037414;28;20031;-80
2023/05/20 08:56:27;;;;;;;27.75;18.42;;;14.90;99.90;;;;;;5053876;28;20402;-78
2023/05/20 08:58:53;;;;;;;28.23;18.45;;;15.00;99.90;;;;;;5034279;28;20031;-79
2023/05/20 09:01:23;;;;;;;38.45;23.48;;;15.00;99.90;;;;;;5053692;28;20101;-77
2023/05/20 09:03:49;;;;;;;36.80;22.02;;;15.00;99.90;;;;;;5066137;28;20031;-78
2023/05/20 09:06:18;;;;;;;32.20;21.45;;;15.10;99.90;;;;;;5036323;28;20116;-78
2023/05/20 09:08:45;;;;;;;29.42;19.48;;;15.20;99.90;;;;;;5053281;28;20023;-81
2023/05/20 09:11:11;;;;;;;28.38;19.75;;;15.20;99.90;;;;;;5054152;28;20049;-81
2023/05/20 09:13:37;;;;;;;31.38;22.05;;;15.20;99.90;;;;;;5053894;28;20100;-77
2023/05/20 09:16:03;;;;;;;29.80;19.60;;;15.20;99.90;;;;;;5053215;28;20049;-81
2023/05/20 09:18:29;;;;;;;34.75;22.05;;;15.20;99.90;;;;;;5033518;28;20045;-81
2023/05/20 09:20:55;;;;;;;32.05;19.30;;;15.20;99.90;;;;;;5056940;28;20497;-81
2023/05/20 09:23:21;;;;;;;29.98;20.40;;;15.30;99.90;;;;;;5035901;28;20053;-80
2023/05/20 09:25:50;;;;;;;35.75;21.65;;;15.40;99.90;;;;;;5035564;28;20052;-78
2023/05/20 09:28:18;;;;;;;31.30;20.25;;;15.50;99.90;;;;;;5053455;28;20021;-79
2023/05/20 09:30:44;;;;;;;33.80;21.20;;;15.50;99.90;;;;;;5056401;28;20024;-77
2023/05/20 09:33:11;;;;;;;33.92;22.20;;;15.50;99.90;;;;;;5040614;28;20028;-78
2023/05/20 09:35:36;;;;;;;34.33;20.25;;;15.70;99.90;;;;;;5036789;28;20474;-78
2023/05/20 09:38:04;;;;;;;33.53;21.75;;;15.60;99.90;;;;;;5053031;28;20033;-77
2023/05/20 09:40:30;;;;;;;34.63;22.20;;;15.70;99.90;;;;;;5053267;28;20163;-79
2023/05/20 09:43:01;;;;;;;31.75;20.67;;;15.70;99.90;;;;;;5035099;28;20044;-81
2023/05/20 09:45:27;;;;;;;36.22;22.25;;;15.70;99.90;;;;;;5035037;28;20025;-79
2023/05/20 09:47:53;;;;;;;33.15;20.60;;;15.70;99.90;;;;;;5035261;28;20033;-79
2023/05/20 09:50:20;;;;;;;35.50;22.73;;;15.80;99.90;;;;;;5035174;28;20538;-78
2023/05/20 09:52:47;;;;;;;34.58;22.95;;;15.90;99.90;;;;;;5035045;28;20044;-78
2023/05/20 09:55:14;;;;;;;32.97;22.52;;;15.90;99.90;;;;;;5051411;28;20104;-78
2023/05/20 09:57:40;;;;;;;31.48;21.75;;;16.10;99.90;;;;;;5033097;28;20023;-78
2023/05/20 10:00:12;;;;;;;33.97;21.63;;;16.20;99.90;;;;;;5033331;28;20037;-78
2023/05/20 10:02:40;;;;;;;36.00;23.33;;;16.30;99.90;;;;;;5033101;28;20025;-78
2023/05/20 10:05:22;;;;;;;35.65;22.85;;;16.20;99.90;;;;;;5033359;28;20017;-80
2023/05/20 10:08:17;;;;;;;37.78;22.50;;;16.30;99.90;;;;;;5033657;28;20481;-79
2023/05/20 10:11:11;;;;;;;38.13;23.75;;;16.30;99.90;;;;;;5052071;28;20450;-78
2023/05/20 10:13:52;;;;;;;34.80;22.85;;;16.40;99.90;;;;;;5035568;28;20065;-81
2023/05/20 10:16:36;;;;;;;37.03;22.88;;;16.50;99.90;;;;;;5052754;28;20033;-79
2023/05/20 10:19:26;;;;;;;36.55;21.95;;;16.60;99.90;;;;;;5035068;28;20045;-79
2023/05/20 10:22:05;;;;;;;32.38;21.85;;;16.60;99.90;;;;;;5035264;28;20031;-80
2023/05/20 10:24:33;;;;;;;33.38;23.60;;;16.80;99.90;;;;;;5035336;28;20560;-81
2023/05/20 10:27:01;;;;;;;33.40;22.15;;;16.90;99.90;;;;;;5035250;28;20041;-79
2023/05/20 10:29:27;;;;;;;39.33;23.05;;;16.90;99.90;;;;;;5035360;28;20029;-81
2023/05/20 10:31:53;;;;;;;35.38;21.38;;;17.10;99.90;;;;;;5053127;28;20044;-80
2023/05/20 10:34:20;;;;;;;33.85;22.13;;;17.20;99.90;;;;;;5048893;28;20025;-79
2023/05/20 10:36:57;;;;;;;36.88;22.83;;;17.00;99.90;;;;;;5020339;28;20037;-81
2023/05/20 10:39:32;;;;;;;31.27;22.23;;;17.10;99.90;;;;;;5034296;28;20047;-82
2023/05/20 10:42:08;;;;;;;33.50;21.15;;;17.20;99.90;;;;;;5034124;28;20414;-82
2023/05/20 10:44:44;;;;;;;32.45;22.15;;;17.30;99.90;;;;;;5052056;28;20032;-82
2023/05/20 10:47:10;;;;;;;32.55;22.20;;;17.20;99.90;;;;;;5034351;28;20025;-83
2023/05/20 10:49:44;;;;;;;34.50;22.38;;;17.10;99.90;;;;;;5034185;28;20014;-82
2023/05/20 10:52:10;;;;;;;30.45;20.27;;;17.00;99.90;;;;;;5044381;28;20013;-80
2023/05/20 10:54:42;;;;;;;33.08;22.30;;;17.10;99.90;;;;;;5051984;28;20108;-81
2023/05/20 10:57:08;;;;;;;;;;;17.10;99.90;;;;;;5050895;28;20492;-81
2023/05/20 10:59:35;;;;;;;32.20;20.88;;;17.30;99.90;;;;;;5051699;28;20015;-82
2023/05/20 11:02:02;;;;;;;29.73;20.30;;;17.40;99.90;;;;;;5034000;28;20033;-81
2023/05/20 11:04:29;;;;;;;33.58;23.05;;;17.30;99.90;;;;;;5044809;28;20068;-81
2023/05/20 11:06:54;;;;;;;29.38;21.80;;;17.20;99.90;;;;;;5051823;28;20021;-80
2023/05/20 11:09:21;;;;;;;30.77;21.52;;;17.10;99.90;;;;;;5050633;28;20028;-81
2023/05/20 11:11:46;;;;;;;28.13;19.88;;;17.20;99.90;;;;;;5051916;28;20029;-81
2023/05/20 11:14:13;;;;;;;30.02;21.15;;;17.40;99.90;;;;;;5050564;28;20047;-81
2023/05/20 11:16:40;;;;;;;30.17;21.00;;;17.50;99.90;;;;;;5049789;28;20029;-81
2023/05/20 11:19:15;;;;;;;31.17;20.67;;;17.60;99.90;;;;;;5055411;28;20397;-81
2023/05/20 11:21:44;;;;;;;28.20;21.13;;;17.50;99.90;;;;;;5051658;28;20104;-78
2023/05/20 11:24:11;;;;;;;28.63;19.70;;;17.60;99.90;;;;;;5052698;28;20018;-79
2023/05/20 11:26:37;;;;;;;30.20;20.80;;;17.60;99.90;;;;;;5050152;28;20024;-80
2023/05/20 11:29:03;;;;;;;27.95;19.60;;;17.70;99.90;;;;;;5051741;28;20390;-81
2023/05/20 11:31:30;;;;;;;25.63;19.45;;;17.70;99.90;;;;;;5033903;28;20065;-81
2023/05/20 11:34:00;;;;;;;28.33;19.58;;;17.60;99.90;;;;;;5055247;28;20021;-81
2023/05/20 11:36:27;;;;;;;29.55;19.23;;;17.70;99.90;;;;;;5055199;28;20059;-81
2023/05/20 11:38:53;;;;;;;26.70;19.95;;;17.70;99.90;;;;;;5055411;28;20041;-81
2023/05/20 11:41:26;;;;;;;30.98;20.73;;;17.70;99.90;;;;;;5063700;28;20519;-81
2023/05/20 11:43:58;;;;;;;27.33;20.45;;;18.00;99.90;;;;;;5072667;28;20029;-81
2023/05/20 11:46:24;;;;;;;29.38;21.58;;;18.40;99.90;;;;;;5063888;28;20099;-81
2023/05/20 11:48:53;;;;;;;26.17;21.02;;;18.60;99.90;;;;;;5065949;28;20048;-79
2023/05/20 11:51:23;;;;;;;27.67;20.33;;;18.80;99.90;;;;;;5047473;28;20548;-79
2023/05/20 11:53:49;;;;;;;27.58;20.52;;;18.70;99.90;;;;;;5031817;28;20116;-80
2023/05/20 11:56:15;;;;;;;29.83;19.92;;;18.70;99.90;;;;;;5052058;28;20111;-81
2023/05/20 11:58:43;;;;;;;26.55;20.17;;;18.40;99.90;;;;;;5070009;28;20056;-79
2023/05/20 12:01:09;;;;;;;32.03;21.20;;;18.30;99.90;;;;;;5057853;28;20020;-79
2023/05/20 12:03:35;;;;;;;32.55;21.75;;;18.10;99.90;;;;;;5057995;28;20021;-79
2023/05/20 12:06:01;;;;;;;29.65;20.83;;;18.10;99.90;;;;;;5058208;28;20032;-79
2023/05/20 12:08:27;;;;;;;31.88;21.75;;;18.10;99.90;;;;;;5057601;28;20025;-81
2023/05/20 12:10:53;;;;;;;31.75;21.95;;;18.10;99.90;;;;;;5075654;28;20473;-80
2023/05/20 12:13:19;;;;;;;28.48;19.05;;;18.20;99.90;;;;;;5057567;28;20094;-79
2023/05/20 12:15:44;;;;;;;37.63;22.27;;;18.30;99.90;;;;;;5075576;28;20416;-81
2023/05/20 12:18:10;;;;;;;31.02;20.50;;;18.50;99.90;;;;;;5057110;28;20063;-79
2023/05/20 12:20:36;;;;;;;31.50;20.85;;;18.70;99.90;;;;;;5057514;28;20496;-79
2023/05/20 12:23:02;;;;;;;30.90;21.25;;;18.80;99.90;;;;;;5057492;28;20115;-77
2023/05/20 12:25:28;;;;;;;28.08;21.23;;;18.90;99.90;;;;;;5075570;28;20021;-81